Strona główna
METAR-TAF:

METAR-TAF

Lotnisko :

Wapakoneta, Ohio, Stany Zjednoczone

Szerokość geograficzna: 40-29-37N, Długość geograficzna: 084-17-53W, wysokość: 278 m

Aktualna obserwacja pogody

Raport powstał 5 minut temu, godzina 13:16 UTC
Wiatr 13 kt od zachód w porywach dochodzący do 20 kt
Temperatura 5°C
Wilgotność 75%
Ciśnienie 1017 hPa
Widzialność: 16.1 km
Przerywane chmury na wysokości 2600 ft
Zachmurzenie całkowite na wysokości 3500 ft

METAR: KAXV 301316Z AUTO 26013G20KT 10SM BKN026 OVC035 05/01 A3003 RMK AO2

czas: 09:21 (13:21 UTC)


TAF: brakujący

Obserwacja i prognoza pogody dla ponad 4000 lotnisk (raport METAR i TAF).

Dostępne stacje oznaczono żółtymi i czerwonymi punktami na mapie.

Najedź kursorem aby zobaczyć nazwę stacji.

Kliknij aby zobaczyć obserwacje i prognozy pogody.

Aby zmienić mapę: kliknij na zielony przycisk z czarnym krzyżykiem, aby powiększyć; na zielony przycisk z myślnikiem, aby pomniejszyć; na zielone strzałki, aby przejść do map sąsiednich.


METAR-TAF: